Time;durP1;ratioP1;P1;durP2;ratioP2;P2;SDS_P1;SDS_P2;PMS_P1;PMS_P2;Temp;Humidity;BMP_temperature;BMP_pressure;BME280_temperature;BME280_humidity;BME280_pressure;Samples;Min_cycle;Max_cycle;Signal;HPM_P1;HPM_P2
2021/09/12 00:01:12;;;;;;;20.25;12.40;;;;;;;16.19;100.00;100576.50;5095144;28;20050;-86
2021/09/12 00:03:38;;;;;;;18.10;12.20;;;;;;;16.18;100.00;100582.66;5095139;28;20038;-86
2021/09/12 00:06:03;;;;;;;17.27;11.93;;;;;;;16.18;100.00;100572.19;5095149;28;20024;-86
2021/09/12 00:08:28;;;;;;;19.38;13.27;;;;;;;16.21;100.00;100577.28;5077087;28;20030;-87
2021/09/12 00:10:54;;;;;;;17.92;13.10;;;;;;;16.23;100.00;100575.47;5076871;28;20016;-86
2021/09/12 00:13:19;;;;;;;17.35;12.80;;;;;;;16.22;100.00;100578.13;5075865;28;20471;-86
2021/09/12 00:15:44;;;;;;;18.92;13.27;;;;;;;16.23;100.00;100569.38;5094987;28;20020;-86
2021/09/12 00:18:10;;;;;;;18.77;13.27;;;;;;;16.25;100.00;100570.16;5076914;28;20036;-86
2021/09/12 00:20:35;;;;;;;20.70;14.18;;;;;;;16.25;100.00;100567.53;5076749;28;20020;-86
2021/09/12 00:23:01;;;;;;;22.05;13.55;;;;;;;16.28;100.00;100570.03;5076612;28;20032;-86
2021/09/12 00:25:26;;;;;;;25.00;14.23;;;;;;;16.24;100.00;100561.47;5076640;28;20060;-86
2021/09/12 00:27:51;;;;;;;21.45;14.48;;;;;;;16.27;100.00;100563.09;5076523;28;20031;-86
2021/09/12 00:30:17;;;;;;;23.88;14.88;;;;;;;16.23;100.00;100558.91;5094701;28;20016;-86
2021/09/12 00:32:42;;;;;;;23.42;15.55;;;;;;;16.22;100.00;100563.28;5076469;28;20035;-86
2021/09/12 00:35:09;;;;;;;22.02;15.18;;;;;;;16.23;100.00;100557.16;5076346;28;20019;-86
2021/09/12 00:37:36;;;;;;;24.50;14.73;;;;;;;16.26;100.00;100551.78;5076248;28;20020;-86
2021/09/12 00:40:01;;;;;;;23.25;14.35;;;;;;;16.27;100.00;100544.78;5076291;28;20122;-86
2021/09/12 00:42:27;;;;;;;23.27;14.98;;;;;;;16.28;100.00;100549.94;5076243;28;20048;-86
2021/09/12 00:44:52;;;;;;;23.38;15.02;;;;;;;16.26;100.00;100554.41;5076113;28;20062;-86
2021/09/12 00:47:17;;;;;;;26.05;15.82;;;;;;;16.28;100.00;100546.47;5076194;28;20442;-86
2021/09/12 00:49:43;;;;;;;25.25;15.93;;;;;;;16.28;100.00;100541.25;5076064;28;20379;-86
2021/09/12 00:52:11;;;;;;;24.92;15.77;;;;;;;16.26;100.00;100537.84;5076302;28;20106;-86
2021/09/12 00:54:37;;;;;;;23.27;15.65;;;;;;;16.23;100.00;100544.06;5076150;28;20031;-87
2021/09/12 00:57:06;;;;;;;22.75;15.43;;;;;;;16.22;100.00;100549.34;5076059;28;20471;-86
2021/09/12 00:59:36;;;;;;;24.90;15.20;;;;;;;16.20;100.00;100559.06;5075715;28;20036;-86
2021/09/12 01:02:03;;;;;;;20.23;14.88;;;;;;;16.23;100.00;100561.53;5076049;28;20052;-86
2021/09/12 01:04:29;;;;;;;22.08;15.70;;;;;;;16.20;100.00;100561.66;5075840;28;20028;-86
2021/09/12 01:06:54;;;;;;;25.15;16.40;;;;;;;16.20;100.00;100561.66;5075905;28;20122;-86
2021/09/12 01:09:19;;;;;;;24.52;17.23;;;;;;;16.17;100.00;100560.03;5075731;28;20553;-86
2021/09/12 01:11:44;;;;;;;30.02;17.70;;;;;;;16.20;100.00;100564.28;5093875;28;20024;-86
2021/09/12 01:14:10;;;;;;;26.40;16.75;;;;;;;16.26;100.00;100564.03;5075825;28;20086;-86
2021/09/12 01:16:35;;;;;;;23.95;16.58;;;;;;;16.27;100.00;100556.09;5093803;28;20023;-86
2021/09/12 01:19:01;;;;;;;24.73;17.38;;;;;;;16.21;100.00;100560.75;5093773;28;20432;-86
2021/09/12 01:21:26;;;;;;;25.35;17.30;;;;;;;16.18;100.00;100558.25;5093730;28;20024;-86
2021/09/12 01:23:53;;;;;;;27.35;17.35;;;;;;;16.18;100.00;100558.25;5093473;28;20102;-86
2021/09/12 01:26:22;;;;;;;25.13;16.95;;;;;;;16.19;100.00;100550.31;5094054;28;20161;-86
2021/09/12 01:28:47;;;;;;;24.48;16.95;;;;;;;16.18;100.00;100551.25;5075490;28;20023;-86
2021/09/12 01:31:20;;;;;;;24.45;17.00;;;;;;;16.22;100.00;100546.72;5093656;28;20016;-87
2021/09/12 01:33:45;;;;;;;26.42;17.40;;;;;;;16.20;100.00;100544.19;5093544;28;20028;-86
2021/09/12 01:36:10;;;;;;;25.40;17.02;;;;;;;16.17;100.00;100538.25;5075543;28;20020;-86
2021/09/12 01:38:36;;;;;;;23.55;16.85;;;;;;;16.18;100.00;100548.63;5093483;28;20024;-87
2021/09/12 01:41:01;;;;;;;26.77;17.80;;;;;;;16.15;100.00;100545.28;5075217;28;20097;-86
2021/09/12 01:43:26;;;;;;;27.58;17.33;;;;;;;16.22;100.00;100542.34;5075751;28;20028;-86
2021/09/12 01:45:52;;;;;;;26.27;17.40;;;;;;;16.14;100.00;100547.06;5075337;28;20020;-86
2021/09/12 01:48:17;;;;;;;26.85;17.40;;;;;;;16.13;100.00;100545.34;5075093;28;20028;-86
2021/09/12 01:50:42;;;;;;;25.10;17.25;;;;;;;16.20;100.00;100543.34;5075642;28;20553;-86
2021/09/12 01:53:07;;;;;;;26.67;17.85;;;;;;;16.22;100.00;100541.50;5075299;28;20024;-86
2021/09/12 01:55:32;;;;;;;27.42;18.08;;;;;;;16.19;100.00;100542.47;5093315;28;20073;-86
2021/09/12 01:57:58;;;;;;;27.10;17.73;;;;;;;16.19;100.00;100545.09;5075043;28;20404;-87
2021/09/12 02:00:23;;;;;;;29.90;18.13;;;;;;;16.19;100.00;100536.38;5075077;28;20118;-86
2021/09/12 02:02:48;;;;;;;27.05;18.42;;;;;;;16.16;100.00;100546.97;5093302;28;20031;-86
2021/09/12 02:05:14;;;;;;;27.63;18.20;;;;;;;16.11;100.00;100545.41;5075100;28;20020;-86
2021/09/12 02:07:39;;;;;;;26.25;17.98;;;;;;;16.12;100.00;100551.50;5093086;28;20024;-86
2021/09/12 02:10:05;;;;;;;26.92;18.55;;;;;;;16.14;100.00;100544.44;5075336;28;20020;-86
2021/09/12 02:12:30;;;;;;;24.98;16.98;;;;;;;16.13;100.00;100553.19;5075097;28;20024;-86
2021/09/12 02:14:55;;;;;;;26.42;17.90;;;;;;;16.11;100.00;100545.41;5075130;28;20536;-87
2021/09/12 02:17:22;;;;;;;26.42;19.08;;;;;;;16.10;100.00;100545.47;5075019;28;20046;-86
2021/09/12 02:19:48;;;;;;;27.90;18.42;;;;;;;16.12;100.00;100548.88;5075473;28;20410;-87
2021/09/12 02:22:14;;;;;;;25.80;19.38;;;;;;;16.05;100.00;100550.91;5093198;28;20020;-86
2021/09/12 02:24:39;;;;;;;27.60;18.33;;;;;;;16.04;100.00;100550.94;5074975;28;20401;-86
2021/09/12 02:27:04;;;;;;;29.00;18.52;;;;;;;16.06;100.00;100554.38;5075027;28;20020;-86
2021/09/12 02:29:29;;;;;;;29.90;19.08;;;;;;;16.07;100.00;100554.31;5074819;28;20493;-86
2021/09/12 02:31:55;;;;;;;29.60;19.00;;;;;;;16.04;100.00;100551.81;5074999;28;20032;-86
2021/09/12 02:34:20;;;;;;;27.60;18.80;;;;;;;16.05;100.00;100550.06;5074830;28;20054;-86
2021/09/12 02:36:46;;;;;;;32.10;19.60;;;;;;;16.08;100.00;100549.94;5077418;28;20024;-86
2021/09/12 02:39:11;;;;;;;29.10;18.85;;;;;;;16.00;100.00;100557.22;5078645;28;20019;-86
2021/09/12 02:41:36;;;;;;;29.17;19.63;;;;;;;16.02;100.00;100561.50;5078531;28;20472;-86
2021/09/12 02:44:02;;;;;;;27.15;19.33;;;;;;;16.04;100.00;100556.19;5078553;28;20020;-86
2021/09/12 02:46:28;;;;;;;27.63;19.95;;;;;;;16.01;100.00;100554.56;5079130;28;20026;-86
2021/09/12 02:48:53;;;;;;;30.00;19.85;;;;;;;16.03;100.00;100567.56;5096613;28;20031;-86
2021/09/12 02:51:18;;;;;;;28.13;19.67;;;;;;;16.07;100.00;100566.53;5078322;28;20035;-86
2021/09/12 02:53:43;;;;;;;28.95;19.00;;;;;;;16.11;100.00;100563.72;5078537;28;20476;-86
2021/09/12 02:56:09;;;;;;;26.42;19.73;;;;;;;16.14;100.00;100562.75;5078426;28;20028;-86
2021/09/12 02:58:34;;;;;;;28.10;18.33;;;;;;;16.10;100.00;100569.91;5078043;28;20031;-87
2021/09/12 03:00:59;;;;;;;26.38;19.25;;;;;;;16.05;100.00;100571.84;5078131;28;20373;-86
2021/09/12 03:03:25;;;;;;;26.98;19.13;;;;;;;16.03;100.00;100573.66;5078268;28;20027;-86
2021/09/12 03:05:50;;;;;;;29.95;19.73;;;;;;;16.02;100.00;100568.50;5096275;28;20385;-86
2021/09/12 03:08:15;;;;;;;28.92;20.13;;;;;;;16.06;100.00;100570.06;5096195;28;20099;-86
2021/09/12 03:10:40;;;;;;;29.85;19.85;;;;;;;16.06;100.00;100570.06;5096209;28;20024;-86
2021/09/12 03:13:06;;;;;;;28.77;19.60;;;;;;;16.00;100.00;100568.53;5096320;28;20023;-86
2021/09/12 03:15:31;;;;;;;30.33;20.02;;;;;;;16.07;100.00;100577.00;5078105;28;20033;-86
2021/09/12 03:17:56;;;;;;;27.33;19.73;;;;;;;16.05;100.00;100571.00;5077979;28;20019;-87
2021/09/12 03:20:22;;;;;;;28.33;20.10;;;;;;;16.08;100.00;100566.47;5077959;28;20023;-86
2021/09/12 03:22:47;;;;;;;27.67;19.02;;;;;;;16.05;100.00;100560.53;5077788;28;20028;-86
2021/09/12 03:25:12;;;;;;;27.77;19.00;;;;;;;16.05;100.00;100561.38;5077795;28;20561;-86
2021/09/12 03:27:38;;;;;;;24.02;17.20;;;;;;;16.06;100.00;100555.22;5077896;28;20025;-87
2021/09/12 03:30:04;;;;;;;25.75;18.00;;;;;;;16.01;100.00;100561.53;5077674;28;20020;-86
2021/09/12 03:32:30;;;;;;;27.27;18.33;;;;;;;16.01;100.00;100564.16;5077715;28;20024;-86
2021/09/12 03:34:55;;;;;;;22.20;16.60;;;;;;;15.91;100.00;100557.59;5077726;28;20020;-86
2021/09/12 03:37:20;;;;;;;25.40;17.98;;;;;;;15.80;100.00;100564.13;5077585;28;20028;-87
2021/09/12 03:39:45;;;;;;;24.25;18.17;;;;;;;15.71;100.00;100558.41;5077382;28;20384;-87
2021/09/12 03:42:11;;;;;;;24.70;17.38;;;;;;;15.57;100.00;100562.38;5095598;28;20028;-87
2021/09/12 03:44:36;;;;;;;27.02;16.58;;;;;;;15.51;100.00;100565.22;5096137;28;20032;-86
2021/09/12 03:47:01;;;;;;;24.65;16.67;;;;;;;15.50;100.00;100563.53;5077261;28;20472;-86
2021/09/12 03:49:27;;;;;;;23.20;15.73;;;;;;;15.47;100.00;100558.41;5077269;28;20024;-86
2021/09/12 03:51:52;;;;;;;22.23;15.90;;;;;;;15.43;100.00;100556.84;5095376;28;20028;-86
2021/09/12 03:54:17;;;;;;;26.13;15.95;;;;;;;15.34;100.00;100555.44;5077386;28;20024;-86
2021/09/12 03:56:42;;;;;;;21.52;16.08;;;;;;;15.28;100.00;100555.66;5077176;28;20035;-86
2021/09/12 03:59:08;;;;;;;22.52;16.50;;;;;;;15.22;100.00;100555.88;5078493;22;20065;-83
2021/09/12 04:01:33;;;;;;;26.42;17.77;;;;;;;15.25;100.00;100557.53;5045552;28;20030;-83
2021/09/12 04:03:59;;;;;;;27.85;17.50;;;;;;;15.21;100.00;100556.81;5046144;28;20114;-83
2021/09/12 04:06:24;;;;;;;27.67;18.95;;;;;;;15.18;100.00;100552.53;5046244;28;20037;-83
2021/09/12 04:08:49;;;;;;;28.90;19.20;;;;;;;15.12;100.00;100557.16;5045923;28;20025;-83
2021/09/12 04:11:14;;;;;;;26.00;17.58;;;;;;;15.10;100.00;100561.56;5045642;28;20075;-83
2021/09/12 04:13:40;;;;;;;25.58;18.10;;;;;;;15.08;100.00;100565.97;5046443;28;20025;-83
2021/09/12 04:16:05;;;;;;;30.30;19.08;;;;;;;15.03;100.00;100568.78;5044861;28;20037;-83
2021/09/12 04:18:30;;;;;;;29.63;18.65;;;;;;;15.06;100.00;100565.22;5046934;28;20525;-83
2021/09/12 04:20:56;;;;;;;28.27;19.70;;;;;;;15.04;100.00;100564.41;5045111;28;20025;-83
2021/09/12 04:23:21;;;;;;;25.98;18.00;;;;;;;15.07;100.00;100561.69;5046191;28;20477;-83
2021/09/12 04:25:46;;;;;;;29.38;18.88;;;;;;;15.03;100.00;100568.78;5045891;28;20065;-83
2021/09/12 04:28:11;;;;;;;30.20;20.52;;;;;;;15.07;100.00;100566.91;5043698;28;20040;-83
2021/09/12 04:30:37;;;;;;;27.35;19.50;;;;;;;15.05;100.00;100564.34;5042887;28;20482;-83
2021/09/12 04:33:02;;;;;;;28.95;19.92;;;;;;;15.07;100.00;100567.75;5044274;28;20057;-83
2021/09/12 04:35:27;;;;;;;29.58;19.88;;;;;;;15.09;100.00;100567.72;5044125;28;20026;-83
2021/09/12 04:37:52;;;;;;;31.92;20.02;;;;;;;15.11;100.00;100568.47;5042504;28;20025;-82
2021/09/12 04:40:18;;;;;;;31.17;19.90;;;;;;;15.09;100.00;100565.09;5043158;28;20079;-82
2021/09/12 04:42:43;;;;;;;28.83;19.55;;;;;;;15.13;100.00;100564.91;5043439;28;20092;-83
2021/09/12 04:45:09;;;;;;;31.80;21.05;;;;;;;15.16;100.00;100566.56;5044631;28;20033;-83
2021/09/12 04:47:34;;;;;;;30.85;21.17;;;;;;;15.17;100.00;100570.88;5044949;28;20029;-83
2021/09/12 04:49:59;;;;;;;28.65;19.30;;;;;;;15.18;100.00;100572.59;5044460;28;20021;-83
2021/09/12 04:52:24;;;;;;;31.05;21.10;;;;;;;15.20;100.00;100569.00;5044123;28;20408;-83
2021/09/12 04:54:50;;;;;;;30.13;20.23;;;;;;;15.26;100.00;100574.91;5044149;28;20025;-83
2021/09/12 04:57:15;;;;;;;33.17;19.83;;;;;;;15.31;100.00;100575.59;5044338;28;20021;-83
2021/09/12 04:59:40;;;;;;;29.38;19.73;;;;;;;15.31;100.00;100579.06;5041426;28;20107;-83
2021/09/12 05:02:05;;;;;;;32.33;21.23;;;;;;;15.28;100.00;100570.50;5043436;28;20112;-83
2021/09/12 05:04:31;;;;;;;29.50;20.65;;;;;;;15.28;100.00;100570.50;5043450;28;20481;-84
2021/09/12 05:06:56;;;;;;;31.38;20.75;;;;;;;15.32;100.00;100565.06;5043504;28;20032;-84
2021/09/12 05:09:23;;;;;;;30.77;21.33;;;;;;;15.36;100.00;100576.25;5044503;28;20029;-83
2021/09/12 05:11:49;;;;;;;32.00;20.13;;;;;;;15.40;100.00;100576.09;5042599;28;20401;-83
2021/09/12 05:14:14;;;;;;;30.27;20.15;;;;;;;15.49;100.00;100581.91;5042158;28;20021;-83
2021/09/12 05:16:39;;;;;;;30.15;21.33;;;;;;;15.55;100.00;100582.50;5044226;28;20021;-83
2021/09/12 05:19:04;;;;;;;30.73;19.88;;;;;;;15.56;100.00;100583.34;5044241;28;20043;-83
2021/09/12 05:21:30;;;;;;;31.02;20.73;;;;;;;15.59;100.00;100593.69;5042089;28;20029;-83
2021/09/12 05:23:55;;;;;;;28.33;19.67;;;;;;;15.63;100.00;100592.66;5044943;28;20092;-83
2021/09/12 05:26:20;;;;;;;34.47;21.13;;;;;;;15.61;100.00;100578.81;5043914;28;20025;-83
2021/09/12 05:28:46;;;;;;;30.67;21.95;;;;;;;15.63;100.00;100588.28;5043893;28;20552;-83
2021/09/12 05:31:11;;;;;;;33.50;21.38;;;;;;;15.66;100.00;100590.78;5043197;28;20022;-83
2021/09/12 05:33:36;;;;;;;29.63;21.08;;;;;;;15.67;100.00;100586.44;5044077;28;20029;-83
2021/09/12 05:36:02;;;;;;;32.90;20.40;;;;;;;15.70;100.00;100586.34;5043992;28;20029;-83
2021/09/12 05:38:27;;;;;;;29.48;20.38;;;;;;;15.77;100.00;100586.94;5045071;28;20052;-83
2021/09/12 05:40:52;;;;;;;30.10;21.17;;;;;;;15.79;100.00;100587.72;5052528;28;20032;-81
2021/09/12 05:43:18;;;;;;;27.73;20.15;;;;;;;15.79;100.00;100591.16;5049977;28;20029;-83
2021/09/12 05:45:43;;;;;;;32.83;19.27;;;;;;;15.79;100.00;100587.72;5040904;28;20026;-83
2021/09/12 05:48:08;;;;;;;33.08;20.13;;;;;;;15.82;100.00;100582.34;5041003;28;20017;-83
2021/09/12 05:50:33;;;;;;;29.30;19.23;;;;;;;15.79;100.00;100587.72;5046707;28;20393;-83
2021/09/12 05:53:06;;;;;;;32.92;19.90;;;;;;;15.86;100.00;100590.03;5045413;28;20359;-83
2021/09/12 05:55:31;;;;;;;30.13;19.25;;;;;;;15.90;100.00;100592.53;5048187;28;20036;-83
2021/09/12 05:57:56;;;;;;;27.48;19.90;;;;;;;15.89;100.00;100596.91;5047643;28;20450;-83
2021/09/12 06:00:21;;;;;;;34.00;20.42;;;;;;;15.91;100.00;100594.22;5048307;28;20030;-83
2021/09/12 06:02:46;;;;;;;28.15;19.77;;;;;;;15.91;100.00;100597.69;5041409;28;20034;-83
2021/09/12 06:05:12;;;;;;;30.52;20.80;;;;;;;15.99;100.00;100600.00;5042326;28;20385;-83
2021/09/12 06:07:37;;;;;;;30.13;19.45;;;;;;;15.99;100.00;100597.41;5040548;28;20072;-82
2021/09/12 06:10:03;;;;;;;32.15;20.50;;;;;;;16.07;100.00;100603.16;5042163;28;20105;-82
2021/09/12 06:12:28;;;;;;;29.63;19.63;;;;;;;16.16;100.00;100601.94;5045322;28;20021;-82
2021/09/12 06:14:54;;;;;;;29.98;19.98;;;;;;;16.19;100.00;100604.44;5047685;28;20428;-82
2021/09/12 06:17:19;;;;;;;32.83;19.73;;;;;;;16.25;100.00;100605.03;5047036;28;20080;-82
2021/09/12 06:19:44;;;;;;;31.30;19.95;;;;;;;16.18;100.00;100600.97;5046170;28;20053;-82
2021/09/12 06:22:09;;;;;;;30.05;20.27;;;;;;;16.19;100.00;100612.28;5044099;28;20084;-82
2021/09/12 06:24:34;;;;;;;30.33;19.83;;;;;;;16.26;100.00;100606.75;5042978;28;20024;-83
2021/09/12 06:27:01;;;;;;;29.65;18.63;;;;;;;16.29;100.00;100596.16;5044657;28;20086;-82
2021/09/12 06:29:27;;;;;;;27.67;19.40;;;;;;;16.38;100.00;100608.00;5050162;28;20036;-83
2021/09/12 06:31:52;;;;;;;29.40;19.17;;;;;;;16.34;100.00;100602.03;5052553;28;20089;-83
2021/09/12 06:34:17;;;;;;;26.85;19.00;;;;;;;16.36;100.00;100601.13;5051097;28;20037;-83
2021/09/12 06:36:43;;;;;;;29.08;19.02;;;;;;;16.33;100.00;100605.56;5050429;28;20052;-83
2021/09/12 06:39:08;;;;;;;28.75;19.48;;;;;;;16.38;100.00;100596.66;5051857;28;20098;-83
2021/09/12 06:41:34;;;;;;;27.45;18.33;;;;;;;16.41;100.00;100596.53;5050559;28;20075;-82
2021/09/12 06:43:59;;;;;;;25.88;19.20;;;;;;;16.52;100.00;100591.72;5051158;28;20378;-83
2021/09/12 06:46:24;;;;;;;28.98;19.05;;;;;;;16.59;100.00;100587.91;5051107;28;20025;-82
2021/09/12 06:48:50;;;;;;;28.73;18.45;;;;;;;16.54;100.00;100590.75;5051185;28;20025;-83
2021/09/12 06:51:15;;;;;;;26.63;19.05;;;;;;;16.70;100.00;100590.94;5051293;28;20044;-83
2021/09/12 06:53:40;;;;;;;27.27;18.85;;;;;;;16.72;100.00;100583.88;5050421;28;20030;-83
2021/09/12 06:56:05;;;;;;;27.35;17.50;;;;;;;16.72;100.00;100589.09;5054019;28;20022;-82
2021/09/12 06:58:32;;;;;;;31.98;16.98;;;;;;;16.79;100.00;100590.56;5054713;28;20037;-83
2021/09/12 07:00:58;;;;;;;26.83;17.90;;;;;;;16.83;100.00;100588.66;5053556;28;20018;-82
2021/09/12 07:03:24;;;;;;;22.48;16.75;;;;;;;16.84;100.00;100586.88;5053867;28;20033;-82
2021/09/12 07:05:49;;;;;;;22.00;15.90;;;;;;;16.89;100.00;100585.75;5053892;28;20059;-82
2021/09/12 07:08:15;;;;;;;28.92;16.65;;;;;;;16.76;100.00;100590.69;5053605;28;20021;-82
2021/09/12 07:10:40;;;;;;;23.98;15.98;;;;;;;16.84;100.00;100579.91;5054232;28;20040;-82
2021/09/12 07:13:05;;;;;;;24.50;16.00;;;;;;;17.08;100.00;100591.03;5055158;28;20048;-82
2021/09/12 07:15:31;;;;;;;42.47;17.85;;;;;;;17.01;100.00;100587.84;5054294;28;20030;-83
2021/09/12 07:17:56;;;;;;;23.67;16.38;;;;;;;17.01;100.00;100590.47;5050047;28;20033;-83
2021/09/12 07:20:21;;;;;;;27.58;16.67;;;;;;;17.05;100.00;100585.94;5050908;28;20052;-83
2021/09/12 07:22:47;;;;;;;29.05;15.52;;;;;;;17.08;100.00;100584.94;5049131;28;20022;-83
2021/09/12 07:25:13;;;;;;;28.35;17.25;;;;;;;17.12;100.00;100587.38;5047812;28;20021;-83
2021/09/12 07:27:38;;;;;;;24.58;16.23;;;;;;;17.10;100.00;100593.59;5047384;28;20044;-83
2021/09/12 07:30:05;;;;;;;26.20;16.45;;;;;;;17.09;100.00;100594.50;5048533;28;20085;-82
2021/09/12 07:32:30;;;;;;;25.95;16.42;;;;;;;17.18;100.00;100594.09;5054759;28;20013;-83
2021/09/12 07:34:55;;;;;;;24.92;17.45;;;;;;;17.15;100.00;100592.50;5059672;28;20017;-83
2021/09/12 07:37:21;;;;;;;26.52;18.60;;;;;;;17.16;100.00;100591.56;5060164;28;20033;-83
2021/09/12 07:39:46;;;;;;;27.40;17.55;;;;;;;17.44;100.00;100592.91;5057691;28;20021;-83
2021/09/12 07:42:11;;;;;;;25.95;17.38;;;;;;;17.56;100.00;100588.88;5058177;28;20013;-83
2021/09/12 07:44:37;;;;;;;29.75;18.75;;;;;;;17.45;100.00;100590.22;5057289;28;20085;-83
2021/09/12 07:47:02;;;;;;;27.88;18.98;;;;;;;17.45;100.00;100592.00;5058684;28;20036;-83
2021/09/12 07:49:27;;;;;;;28.23;19.85;;;;;;;17.33;100.00;100587.31;5058294;28;20026;-83
2021/09/12 07:51:52;;;;;;;28.65;19.20;;;;;;;17.35;100.00;100594.19;5056269;28;20029;-83
2021/09/12 07:54:18;;;;;;;29.83;19.05;;;;;;;17.45;100.00;100592.00;5057315;28;20037;-83
2021/09/12 07:56:43;;;;;;;30.30;19.38;;;;;;;17.42;100.00;100590.34;5057620;28;20051;-84
2021/09/12 07:59:08;;;;;;;27.08;19.63;;;;;;;17.32;100.00;100585.63;5057700;28;20077;-82
2021/09/12 08:01:34;;;;;;;34.63;20.05;;;;;;;17.33;100.00;100589.94;5057341;28;20079;-83
2021/09/12 08:03:59;;;;;;;30.33;20.58;;;;;;;17.32;100.00;100591.72;5057563;28;20026;-84
2021/09/12 08:06:24;;;;;;;31.23;20.77;;;;;;;17.26;100.00;100598.06;5059005;28;20014;-84
2021/09/12 08:08:50;;;;;;;31.83;20.25;;;;;;;17.19;100.00;100590.56;5059339;28;20029;-84
2021/09/12 08:11:15;;;;;;;31.65;19.80;;;;;;;17.22;100.00;100599.16;5058662;28;20021;-82
2021/09/12 08:13:41;;;;;;;29.23;19.83;;;;;;;17.23;100.00;100598.22;5058949;28;20048;-83
2021/09/12 08:16:07;;;;;;;31.58;19.58;;;;;;;17.44;100.00;100606.88;5058832;28;20101;-84
2021/09/12 08:18:33;;;;;;;30.70;19.30;;;;;;;17.53;100.00;100613.47;5057060;28;20037;-84
2021/09/12 08:20:59;;;;;;;26.98;17.88;;;;;;;17.60;100.00;100609.63;5050850;28;20026;-84
2021/09/12 08:23:24;;;;;;;26.65;17.48;;;;;;;17.54;100.00;100615.16;5051923;28;20097;-84
2021/09/12 08:25:49;;;;;;;22.27;16.67;;;;;;;17.40;100.00;100618.44;5053095;28;20024;-84
2021/09/12 08:28:14;;;;;;;27.80;17.88;;;;;;;17.34;100.00;100612.63;5053071;28;20036;-84
2021/09/12 08:30:40;;;;;;;27.38;16.75;;;;;;;17.50;100.00;100618.88;5053089;28;20018;-84
2021/09/12 08:33:15;;;;;;;27.52;16.73;;;;;;;17.76;100.00;100614.16;5052339;28;20025;-84
2021/09/12 08:35:41;;;;;;;27.67;17.20;;;;;;;17.74;100.00;100616.88;5052382;28;20036;-84
2021/09/12 08:38:08;;;;;;;21.95;14.80;;;;;;;17.60;100.00;100620.13;5052840;28;20026;-84
2021/09/12 08:40:33;;;;;;;25.17;16.17;;;;;;;17.29;100.00;100625.94;5053028;28;20029;-84
2021/09/12 08:42:59;;;;;;;22.95;15.45;;;;;;;17.32;100.00;100623.16;5054553;28;20030;-84
2021/09/12 08:45:25;;;;;;;24.65;15.13;;;;;;;17.33;100.00;100621.41;5056618;28;20030;-84
2021/09/12 08:47:51;;;;;;;24.70;15.02;;;;;;;17.36;100.00;100626.50;5052974;28;20021;-84
2021/09/12 08:50:17;;;;;;;24.52;15.73;;;;;;;17.39;100.00;100636.84;5055169;28;20017;-84
2021/09/12 08:52:43;;;;;;;20.73;13.93;;;;;;;17.58;100.00;100629.88;5053737;28;20052;-84
2021/09/12 08:55:09;;;;;;;21.88;13.80;;;;;;;17.72;100.00;100624.81;5055726;28;20096;-84
2021/09/12 08:57:35;;;;;;;24.10;14.27;;;;;;;18.05;100.00;100626.78;5053719;28;20030;-84
2021/09/12 09:00:00;;;;;;;21.02;13.68;;;;;;;18.54;100.00;100621.75;5052823;28;20029;-84
2021/09/12 09:02:27;;;;;;;23.73;14.13;;;;;;;18.34;100.00;100617.47;5054146;28;20018;-84
2021/09/12 09:05:04;;;;;;;19.90;13.10;;;;;;;18.18;100.00;100616.53;5054391;28;20021;-84
2021/09/12 09:07:31;;;;;;;21.20;13.60;;;;;;;18.26;100.00;100629.31;5054889;28;20072;-84
2021/09/12 09:09:58;;;;;;;19.27;13.02;;;;;;;18.21;100.00;100623.44;5053658;28;20018;-84
2021/09/12 09:12:32;;;;;;;23.73;13.82;;;;;;;18.30;100.00;100630.84;5054048;28;20005;-84
2021/09/12 09:15:11;;;;;;;19.08;12.10;;;;;;;18.60;100.00;100623.22;5054532;28;20021;-83
2021/09/12 09:17:40;;;;;;;27.15;12.48;;;;;;;18.38;100.00;100629.56;5053565;28;20094;-83
2021/09/12 09:20:08;;;;;;;23.88;12.82;;;;;;;18.40;100.00;100626.84;5053549;28;20021;-83
2021/09/12 09:22:37;;;;;;;20.35;11.88;;;;;;;18.51;100.00;100635.03;5054382;28;20021;-83
2021/09/12 09:25:11;;;;;;;21.33;12.48;;;;;;;18.60;100.00;100624.06;5054388;28;20045;-83
2021/09/12 09:28:00;;;;;;;18.80;11.70;;;;;;;18.56;100.00;100627.75;5053299;28;20051;-83
2021/09/12 09:30:31;;;;;;;20.13;12.05;;;;;;;18.82;100.00;100630.91;5053671;28;20109;-83
2021/09/12 09:33:22;;;;;;;20.13;11.27;;;;;;;18.80;100.00;100630.13;5054508;28;20092;-83
2021/09/12 09:35:59;;;;;;;20.80;11.65;;;;;;;19.42;100.00;100636.47;5051535;28;20027;-83
2021/09/12 09:38:46;;;;;;;17.10;10.70;;;;;;;19.85;100.00;100635.94;5050451;28;20052;-83
2021/09/12 09:41:14;;;;;;;18.52;10.43;;;;;;;19.51;100.00;100638.59;5052066;28;20059;-83
2021/09/12 09:43:42;;;;;;;18.05;10.50;;;;;;;19.23;100.00;100638.41;5051605;28;20022;-83
2021/09/12 09:46:30;;;;;;;17.83;11.27;;;;;;;19.44;100.00;100634.63;5052065;28;20115;-83
2021/09/12 09:48:58;;;;;;;20.95;10.73;;;;;;;19.43;100.00;100640.81;5052287;28;20033;-83
2021/09/12 09:51:24;;;;;;;20.40;10.77;;;;;;;19.46;100.00;100645.91;5050960;28;20029;-83
2021/09/12 09:53:50;;;;;;;21.45;10.98;;;;;;;19.09;100.00;100641.75;5049751;28;20030;-83
2021/09/12 09:56:16;;;;;;;18.25;10.35;;;;;;;18.79;100.00;100644.19;5049676;28;20049;-83
2021/09/12 09:58:46;;;;;;;19.20;10.95;;;;;;;19.12;100.00;100640.72;5068701;22;20409;-90
2021/09/12 10:01:37;;;;;;;19.00;10.93;;;;;;;20.04;100.00;100643.66;5032961;28;20362;-90
2021/09/12 10:04:09;;;;;;;19.30;10.40;;;;;;;20.50;100.00;100633.97;5027163;28;20029;-90
2021/09/12 10:06:42;;;;;;;15.80;9.45;;;;;;;21.52;100.00;100640.19;5032832;28;20117;-90
2021/09/12 10:09:21;;;;;;;17.73;10.43;;;;;;;21.34;100.00;100638.66;5032882;28;20025;-90
2021/09/12 10:11:53;;;;;;;14.82;9.80;;;;;;;20.54;100.00;100639.97;5033178;28;20018;-91
2021/09/12 10:14:30;;;;;;;20.48;9.13;;;;;;;20.38;100.00;100646.09;5032140;28;20029;-90
2021/09/12 10:16:57;;;;;;;16.17;9.15;;;;;;;20.11;100.00;100637.13;5032726;28;20112;-90
2021/09/12 10:19:36;;;;;;;19.85;9.48;;;;;;;19.98;100.00;100634.31;5034577;28;20032;-90
2021/09/12 10:22:12;;;;;;;20.17;9.10;;;;;;;19.88;100.00;100633.13;5031873;28;20057;-90
2021/09/12 10:25:15;;;;;;;12.88;8.50;;;;;;;20.01;100.00;100636.78;5032045;28;20036;-90
2021/09/12 10:28:15;;;;;;;;;;;;;;;;;;;;;
2021/09/12 10:30:52;;;;;;;15.63;8.23;;;;;;;20.33;100.00;100632.31;5033347;28;20385;-90
2021/09/12 10:33:23;;;;;;;14.30;7.90;;;;;;;20.20;100.00;100631.34;5033045;28;20033;-90
2021/09/12 10:35:54;;;;;;;16.58;9.05;;;;;;;20.68;100.00;100622.38;5032588;28;20433;-90
2021/09/12 10:38:42;;;;;;;15.50;8.15;;;;;;;22.83;100.00;100627.22;5031410;28;20543;-90
2021/09/12 10:41:13;;;;;;;16.05;6.68;;;;;;;22.75;100.00;100627.75;5031544;28;20033;-90
2021/09/12 10:43:38;;;;;;;13.95;7.28;;;;;;;23.11;100.00;100614.75;5032419;28;20072;-90
2021/09/12 10:46:09;;;;;;;14.57;7.20;;;;;;;21.68;100.00;100628.66;5031794;28;20083;-90
2021/09/12 10:48:35;;;;;;;13.70;6.93;;;;;;;20.65;100.00;100626.97;5031757;28;20409;-90
2021/09/12 10:51:30;;;;;;;14.13;6.60;;;;;;;20.59;100.00;100622.06;5031834;28;20116;-90
2021/09/12 10:54:08;;;;;;;14.63;7.35;;;;;;;20.68;100.00;100622.38;5028973;28;20280;-90
2021/09/12 10:56:36;;;;;;;12.02;6.25;;;;;;;21.50;100.00;100614.81;5033529;28;20041;-90
2021/09/12 10:59:09;;;;;;;11.63;6.78;;;;;;;21.08;100.00;100616.50;5038213;28;20025;-90
2021/09/12 11:01:55;;;;;;;12.90;6.60;;;;;;;21.30;100.00;100616.00;5040042;28;20053;-90
2021/09/12 11:04:33;;;;;;;13.30;6.28;;;;;;;21.50;100.00;100625.38;5040209;28;20029;-90